Tullamore, Ireland
Current Conditions -  °F | °C
As of 10:00 AM on Tuesday 21 Oct 2014 (Local Time) from EIME Reporting Station
Broken Clouds Broken Clouds  
Wind Chill: 40°   Ceiling: 2900
Heat Index: 48°   Visibility: 6mi
Dew Point: 43°   Wind: 24mph
Humidity: 82%   Direction: 270°W
Pressure: 29.8"   Gusts: 47mph
Location:  53.28°N, 7.49°W
Report Text: EIME 211000Z 27021G41KT 9999 FEW015 FEW020CB BKN029 09/06 Q1009
Loading
Personal Weather Stations






























Interactive Weather Map
Tropical Storm Tracking
New forecast layout! Learn more

10-Day Weather Forecast

Advertisements
Track Severe Weather on mobile